Time;durP1;ratioP1;P1;durP2;ratioP2;P2;SDS_P1;SDS_P2;PMS_P1;PMS_P2;Temp;Humidity;BMP_temperature;BMP_pressure;BME280_temperature;BME280_humidity;BME280_pressure;Samples;Min_cycle;Max_cycle;Signal;HPM_P1;HPM_P2
2023/08/27 00:01:24;;;;;;;6.90;2.30;;;;;;;15.34;100.00;100442.47;6099657;28;20078;-67
2023/08/27 00:04:19;;;;;;;7.73;2.03;;;;;;;15.28;100.00;100419.16;6097141;28;20043;-66
2023/08/27 00:07:15;;;;;;;4.17;2.10;;;;;;;15.25;100.00;100430.19;6098041;28;20274;-66
2023/08/27 00:10:12;;;;;;;5.22;2.60;;;;;;;15.44;100.00;100443.03;6097721;28;20051;-66
2023/08/27 00:13:07;;;;;;;4.65;2.00;;;;;;;15.61;100.00;100433.00;6113241;28;20029;-66
2023/08/27 00:16:04;;;;;;;3.53;1.73;;;;;;;15.55;100.00;100435.56;6097367;28;20491;-66
2023/08/27 00:19:00;;;;;;;3.30;1.77;;;;;;;15.30;100.00;100424.31;6097820;28;20357;-66
2023/08/27 00:21:57;;;;;;;4.03;1.92;;;;;;;15.28;100.00;100432.50;6097955;28;20029;-66
2023/08/27 00:24:53;;;;;;;3.25;1.70;;;;;;;15.29;100.00;100411.97;6096850;28;20047;-65
2023/08/27 00:27:48;;;;;;;4.47;1.98;;;;;;;15.61;100.00;100437.50;6097812;28;20058;-66
2023/08/27 00:30:44;;;;;;;3.37;1.63;;;;;;;15.47;100.00;100399.09;6097357;28;20037;-66
2023/08/27 00:33:39;;;;;;;5.40;1.90;;;;;;;15.52;100.00;100412.72;6095275;28;20033;-66
2023/08/27 00:36:34;;;;;;;5.37;1.90;;;;;;;15.47;100.00;100409.78;6098331;28;20037;-66
2023/08/27 00:39:30;;;;;;;4.20;1.95;;;;;;;15.53;100.00;100430.44;6110221;28;20393;-66
2023/08/27 00:42:26;;;;;;;5.57;2.20;;;;;;;15.45;100.00;100415.28;6107476;28;20040;-67
2023/08/27 00:45:21;;;;;;;4.38;2.10;;;;;;;15.38;100.00;100406.34;6102500;28;20272;-66
2023/08/27 00:48:17;;;;;;;4.40;2.00;;;;;;;15.33;100.00;100390.03;6109430;28;20060;-66
2023/08/27 00:51:12;;;;;;;4.45;1.92;;;;;;;15.40;100.00;100392.81;6109334;28;20086;-66
2023/08/27 00:54:07;;;;;;;5.00;2.00;;;;;;;15.55;100.00;100403.50;6084050;28;20040;-66
2023/08/27 00:57:03;;;;;;;4.73;1.87;;;;;;;15.55;100.00;100403.50;6096795;28;20028;-65
2023/08/27 00:59:59;;;;;;;3.90;2.10;;;;;;;15.60;100.00;100401.13;6099692;28;20276;-66
2023/08/27 01:02:54;;;;;;;5.80;1.85;;;;;;;15.45;100.00;100387.72;6095520;28;20032;-66
2023/08/27 01:05:50;;;;;;;7.07;1.80;;;;;;;15.47;100.00;100399.94;6096148;28;20055;-66
2023/08/27 01:08:56;;;;;;;3.70;1.90;;;;;;;15.52;100.00;100411.91;6097446;28;20530;-66
2023/08/27 01:11:59;;;;;;;4.47;2.05;;;;;;;15.40;100.00;100399.00;6079335;28;20037;-66
2023/08/27 01:14:56;;;;;;;3.75;1.90;;;;;;;15.34;100.00;100383.69;6075296;28;20039;-66
2023/08/27 01:17:52;;;;;;;5.03;2.03;;;;;;;15.40;100.00;100398.16;6079391;28;20102;-66
2023/08/27 01:20:48;;;;;;;4.35;2.35;;;;;;;15.33;100.00;100392.69;6096740;28;20075;-66
2023/08/27 01:23:45;;;;;;;7.40;2.10;;;;;;;15.51;100.00;100373.66;6096066;28;20391;-67
2023/08/27 01:26:46;;;;;;;5.97;2.10;;;;;;;15.69;100.00;100370.59;6097227;28;20582;-66
2023/08/27 01:30:09;;;;;;;4.43;2.10;;;;;;;15.43;100.00;100355.88;6097126;28;20061;-66
2023/08/27 01:33:12;;;;;;;5.25;2.35;;;;;;;15.67;100.00;100362.75;6110842;28;20388;-66
2023/08/27 01:36:09;;;;;;;6.32;2.50;;;;;;;15.62;100.00;100353.66;6096150;28;20041;-66
2023/08/27 01:39:04;;;;;;;14.80;3.70;;;;;;;15.48;100.00;100337.44;6081394;28;20044;-66
2023/08/27 01:42:00;;;;;;;9.33;3.13;;;;;;;15.55;100.00;100326.00;6096320;28;20036;-66
2023/08/27 01:44:55;;;;;;;5.78;3.03;;;;;;;15.36;100.00;100333.56;6074463;28;20287;-66
2023/08/27 01:47:51;;;;;;;8.77;2.90;;;;;;;15.18;100.00;100330.44;6098093;28;20037;-65
2023/08/27 01:50:46;;;;;;;7.53;3.00;;;;;;;15.13;100.00;100343.53;6101346;28;20037;-65
2023/08/27 01:53:42;;;;;;;7.57;3.00;;;;;;;15.16;100.00;100315.63;6097619;28;20295;-66
2023/08/27 01:56:37;;;;;;;6.47;2.72;;;;;;;15.11;100.00;100323.38;6097404;28;20487;-65
2023/08/27 01:59:33;;;;;;;6.40;2.83;;;;;;;15.06;100.00;100342.59;6100997;28;20048;-66
2023/08/27 02:02:28;;;;;;;8.57;3.93;;;;;;;14.96;100.00;100344.72;6100321;28;20041;-66
2023/08/27 02:05:23;;;;;;;6.70;2.97;;;;;;;14.84;100.00;100330.97;6099967;28;20036;-66
2023/08/27 02:08:19;;;;;;;5.23;2.80;;;;;;;14.79;100.00;100329.88;6100895;28;20032;-66
2023/08/27 02:11:14;;;;;;;7.93;2.33;;;;;;;14.83;100.00;100341.84;6099000;28;20061;-65
2023/08/27 02:14:09;;;;;;;5.73;2.30;;;;;;;14.79;100.00;100335.22;6097662;28;20381;-65
2023/08/27 02:17:04;;;;;;;6.07;2.20;;;;;;;14.88;100.00;100339.47;6100591;28;20033;-65
2023/08/27 02:20:00;;;;;;;4.27;2.03;;;;;;;14.79;100.00;100324.53;6100508;28;20642;-65
2023/08/27 02:22:55;;;;;;;7.03;2.35;;;;;;;14.83;100.00;100349.88;6100214;28;20112;-65
2023/08/27 02:25:50;;;;;;;5.03;2.10;;;;;;;14.75;100.00;100333.94;6099742;28;20044;-65
2023/08/27 02:28:46;;;;;;;6.10;2.50;;;;;;;14.82;100.00;100340.19;6100656;28;20439;-65
2023/08/27 02:31:42;;;;;;;7.00;2.30;;;;;;;14.81;100.00;100351.91;6099884;28;20075;-66
2023/08/27 02:34:37;;;;;;;5.10;2.20;;;;;;;14.82;100.00;100346.34;6099439;28;20592;-66
2023/08/27 02:37:33;;;;;;;5.93;2.33;;;;;;;14.82;100.00;100349.03;6100155;28;20068;-65
2023/08/27 02:40:28;;;;;;;5.53;2.25;;;;;;;14.76;100.00;100330.22;6099897;28;20399;-67
2023/08/27 02:43:24;;;;;;;4.70;1.87;;;;;;;14.83;100.00;100324.00;6099390;28;20388;-66
2023/08/27 02:46:19;;;;;;;5.78;2.05;;;;;;;14.96;100.00;100338.53;6099889;28;20025;-65
2023/08/27 02:49:14;;;;;;;4.97;1.80;;;;;;;14.96;100.00;100319.84;6100085;28;20075;-66
2023/08/27 02:52:10;;;;;;;4.63;2.40;;;;;;;15.06;100.00;100320.38;6098630;28;20045;-65
2023/08/27 02:55:05;;;;;;;4.77;2.20;;;;;;;15.03;100.00;100307.44;6099015;28;20037;-64
2023/08/27 02:58:01;;;;;;;4.95;2.05;;;;;;;15.04;100.00;100311.75;6098677;28;20096;-66
2023/08/27 03:00:56;;;;;;;5.47;2.08;;;;;;;15.08;100.00;100308.53;6098296;28;20029;-66
2023/08/27 03:03:51;;;;;;;7.63;1.98;;;;;;;15.17;100.00;100306.56;6098722;28;20049;-65
2023/08/27 03:06:47;;;;;;;3.73;1.83;;;;;;;15.17;100.00;100301.22;6098978;28;20094;-65
2023/08/27 03:09:42;;;;;;;5.30;1.90;;;;;;;15.09;100.00;100288.81;6099406;28;20036;-65
2023/08/27 03:12:37;;;;;;;4.90;2.20;;;;;;;15.10;100.00;100285.13;6099466;28;20028;-66
2023/08/27 03:15:33;;;;;;;3.37;2.13;;;;;;;15.08;100.00;100286.34;6098350;28;20045;-66
2023/08/27 03:18:29;;;;;;;4.13;1.63;;;;;;;15.03;100.00;100284.19;6099368;28;20427;-66
2023/08/27 03:21:24;;;;;;;5.28;2.28;;;;;;;15.10;100.00;100285.13;6098588;28;20087;-65
2023/08/27 03:24:20;;;;;;;5.63;1.95;;;;;;;15.06;100.00;100281.16;6098121;28;20036;-66
2023/08/27 03:27:15;;;;;;;6.50;1.80;;;;;;;15.02;100.00;100266.53;6098710;28;20056;-66
2023/08/27 03:30:11;;;;;;;5.43;2.03;;;;;;;15.18;100.00;100303.72;6098828;28;20520;-66
2023/08/27 03:33:06;;;;;;;5.00;1.70;;;;;;;15.35;100.00;100291.84;6103095;28;20025;-66
2023/08/27 03:36:02;;;;;;;4.37;1.70;;;;;;;15.43;100.00;100281.03;6097833;28;20033;-66
2023/08/27 03:38:57;;;;;;;5.93;1.90;;;;;;;15.54;100.00;100292.28;6099064;28;20035;-66
2023/08/27 03:41:53;;;;;;;3.97;1.50;;;;;;;15.32;100.00;100289.53;6098004;28;20151;-66
2023/08/27 03:44:48;;;;;;;3.50;1.70;;;;;;;15.53;100.00;100295.97;6095727;28;20041;-66
2023/08/27 03:47:44;;;;;;;2.83;1.70;;;;;;;15.46;100.00;100280.66;6098577;28;20033;-66
2023/08/27 03:50:39;;;;;;;3.67;1.75;;;;;;;15.45;100.00;100270.16;6097973;28;20032;-66
2023/08/27 03:53:36;;;;;;;2.80;1.73;;;;;;;15.38;100.00;100255.91;6096393;28;20224;-66
2023/08/27 03:56:31;;;;;;;5.00;1.70;;;;;;;15.45;100.00;100268.31;6098533;28;20349;-66
2023/08/27 03:59:26;;;;;;;4.60;1.50;;;;;;;15.39;100.00;100271.72;6098156;28;20072;-66
2023/08/27 04:02:22;;;;;;;4.43;2.10;;;;;;;15.17;100.00;100263.84;6097852;28;20032;-66
2023/08/27 04:05:17;;;;;;;4.07;1.90;;;;;;;15.14;100.00;100275.72;6096513;28;20052;-66
2023/08/27 04:08:12;;;;;;;5.90;1.83;;;;;;;15.23;100.00;100274.63;6098068;28;20353;-66
2023/08/27 04:11:09;;;;;;;6.27;1.83;;;;;;;15.10;100.00;100292.31;6097388;28;20480;-66
2023/08/27 04:14:05;;;;;;;6.13;1.83;;;;;;;15.02;100.00;100297.75;6097010;28;20087;-66
2023/08/27 04:17:00;;;;;;;4.07;1.80;;;;;;;15.17;100.00;100307.41;6097912;28;20048;-66
2023/08/27 04:19:55;;;;;;;4.07;2.13;;;;;;;14.93;100.00;100310.38;6097218;28;20065;-65
2023/08/27 04:22:50;;;;;;;4.10;1.90;;;;;;;14.99;100.00;100314.97;6097506;28;20431;-66
2023/08/27 04:25:46;;;;;;;3.73;1.83;;;;;;;14.97;100.00;100333.03;6096815;28;20029;-66
2023/08/27 04:28:42;;;;;;;5.38;2.10;;;;;;;14.82;100.00;100321.50;6097553;28;20029;-66
2023/08/27 04:31:37;;;;;;;6.93;2.00;;;;;;;14.96;100.00;100350.06;6097272;28;20045;-65
2023/08/27 04:34:32;;;;;;;4.67;2.00;;;;;;;15.05;100.00;100338.28;6096363;28;20283;-66
2023/08/27 04:37:27;;;;;;;5.97;2.13;;;;;;;15.09;100.00;100350.25;6096822;28;20132;-66
2023/08/27 04:40:23;;;;;;;4.20;1.60;;;;;;;15.13;100.00;100354.22;6097148;28;20033;-66
2023/08/27 04:43:19;;;;;;;6.32;2.08;;;;;;;15.13;100.00;100354.22;6096511;28;20072;-66
2023/08/27 04:46:14;;;;;;;3.30;1.77;;;;;;;15.11;100.00;100329.50;6097156;28;20029;-66
2023/08/27 04:49:09;;;;;;;2.97;1.70;;;;;;;15.31;100.00;100349.31;6097391;28;20064;-66
2023/08/27 04:52:05;;;;;;;3.33;1.63;;;;;;;15.27;100.00;100318.63;6097269;28;20021;-65
2023/08/27 04:55:08;;;;;;;5.10;1.63;;;;;;;15.47;100.00;100343.81;6095871;28;20090;-66
2023/08/27 04:58:04;;;;;;;4.70;1.80;;;;;;;15.45;100.00;100326.28;6097445;28;20071;-65
2023/08/27 05:00:59;;;;;;;2.97;1.45;;;;;;;15.49;100.00;100323.06;6097241;28;20119;-66
2023/08/27 05:03:54;;;;;;;2.87;1.60;;;;;;;15.57;100.00;100327.50;6095581;28;20039;-65
2023/08/27 05:06:50;;;;;;;6.50;1.73;;;;;;;15.61;100.00;100323.41;6096299;28;20039;-65
2023/08/27 05:09:46;;;;;;;5.00;1.97;;;;;;;15.74;100.00;100338.75;6094908;28;20036;-66
2023/08/27 05:12:41;;;;;;;3.63;1.70;;;;;;;15.74;100.00;100328.06;6096426;28;20040;-66
2023/08/27 05:15:36;;;;;;;3.70;1.77;;;;;;;15.73;100.00;100335.28;6096099;28;20112;-65
2023/08/27 05:18:32;;;;;;;7.80;2.00;;;;;;;15.62;100.00;100308.19;6096849;28;20503;-66
2023/08/27 05:21:28;;;;;;;4.45;1.83;;;;;;;15.65;100.00;100311.34;6097088;28;20033;-67
2023/08/27 05:24:23;;;;;;;5.67;2.07;;;;;;;15.61;100.00;100306.53;6100556;28;20119;-68
2023/08/27 05:27:18;;;;;;;3.77;1.90;;;;;;;15.56;100.00;100306.28;6102075;28;20033;-68
2023/08/27 05:30:14;;;;;;;6.30;1.83;;;;;;;15.60;100.00;100307.56;6101727;28;20052;-65
2023/08/27 05:33:09;;;;;;;4.50;1.85;;;;;;;15.51;100.00;100276.63;6101434;28;20029;-65
2023/08/27 05:36:05;;;;;;;6.23;2.00;;;;;;;15.45;100.00;100296.88;6100486;28;20383;-68
2023/08/27 05:39:00;;;;;;;6.27;2.20;;;;;;;15.55;100.00;100304.59;6101479;28;20037;-65
2023/08/27 05:41:56;;;;;;;6.90;2.33;;;;;;;15.53;100.00;100301.31;6101235;28;20061;-65
2023/08/27 05:44:51;;;;;;;5.60;1.63;;;;;;;15.51;100.00;100289.97;6100875;28;20195;-66
2023/08/27 05:47:46;;;;;;;4.60;2.07;;;;;;;15.54;100.00;100276.25;6101354;28;20491;-66
2023/08/27 05:50:42;;;;;;;3.73;1.90;;;;;;;15.65;100.00;100283.78;6101315;28;20310;-67
2023/08/27 05:53:38;;;;;;;4.20;2.00;;;;;;;15.66;100.00;100270.19;6099295;28;20033;-65
2023/08/27 05:56:33;;;;;;;3.70;1.73;;;;;;;15.88;100.00;100297.78;6100876;28;20029;-65
2023/08/27 05:59:28;;;;;;;5.77;1.73;;;;;;;16.06;100.00;100295.50;6099648;28;20492;-65
2023/08/27 06:02:24;;;;;;;3.13;1.58;;;;;;;16.11;100.00;100285.06;6100981;28;20043;-66
2023/08/27 06:05:19;;;;;;;5.33;2.00;;;;;;;16.37;100.00;100295.16;6101536;28;20033;-65
2023/08/27 06:08:14;;;;;;;6.10;2.10;;;;;;;16.49;100.00;100293.59;6105591;28;20301;-65
2023/08/27 06:11:10;;;;;;;5.70;2.13;;;;;;;16.57;100.00;100280.94;6100596;28;20032;-67
2023/08/27 06:14:05;;;;;;;4.43;1.80;;;;;;;16.70;100.00;100280.19;6099243;28;20024;-66
2023/08/27 06:17:00;;;;;;;4.07;1.80;;;;;;;16.75;99.03;100275.06;6100363;28;20063;-66
2023/08/27 06:19:56;;;;;;;3.90;1.70;;;;;;;16.71;98.63;100265.78;6100344;28;20035;-66
2023/08/27 06:22:51;;;;;;;4.10;1.80;;;;;;;16.77;98.54;100286.41;6100133;28;20043;-66
2023/08/27 06:25:46;;;;;;;5.55;1.70;;;;;;;16.85;98.57;100290.81;6099806;28;20461;-65
2023/08/27 06:28:42;;;;;;;3.27;1.70;;;;;;;16.88;98.23;100307.28;6100117;28;20495;-65
2023/08/27 06:31:38;;;;;;;4.63;2.07;;;;;;;16.93;98.15;100302.16;6100299;28;20039;-65
2023/08/27 06:34:33;;;;;;;3.63;1.92;;;;;;;16.98;97.86;100305.09;6098047;28;20029;-65
2023/08/27 06:37:28;;;;;;;4.93;1.60;;;;;;;17.06;95.83;100282.66;6099508;28;20148;-65
2023/08/27 06:40:24;;;;;;;4.70;2.13;;;;;;;17.08;95.61;100277.94;6099752;28;20041;-65
2023/08/27 06:43:19;;;;;;;6.57;1.88;;;;;;;17.24;94.84;100266.88;6099387;28;20484;-65
2023/08/27 06:46:14;;;;;;;3.65;1.67;;;;;;;17.16;94.76;100273.25;6099692;28;20033;-65
2023/08/27 06:49:10;;;;;;;4.33;1.43;;;;;;;17.37;94.50;100266.91;6100041;28;20080;-65
2023/08/27 06:52:05;;;;;;;4.47;1.77;;;;;;;17.39;93.43;100254.16;6099874;28;20291;-65
2023/08/27 06:55:01;;;;;;;4.20;1.90;;;;;;;17.63;92.17;100263.53;6099261;28;20040;-65
2023/08/27 06:57:57;;;;;;;5.32;1.80;;;;;;;17.87;90.98;100268.34;6099590;28;20047;-67
2023/08/27 07:00:52;;;;;;;4.00;1.50;;;;;;;17.97;89.97;100262.56;6099617;28;20385;-65
2023/08/27 07:03:47;;;;;;;4.37;1.43;;;;;;;18.25;89.07;100269.41;6098274;28;20029;-65
2023/08/27 07:06:43;;;;;;;4.40;1.70;;;;;;;18.18;88.86;100281.16;6099393;28;20059;-66
2023/08/27 07:09:38;;;;;;;5.03;1.70;;;;;;;18.03;89.59;100283.19;6099472;28;20036;-65
2023/08/27 07:12:35;;;;;;;3.37;1.57;;;;;;;17.75;90.49;100259.22;6098745;28;20071;-65
2023/08/27 07:15:30;;;;;;;4.18;1.60;;;;;;;17.84;90.29;100268.72;6080956;28;20451;-65
2023/08/27 07:18:25;;;;;;;3.77;1.73;;;;;;;17.72;90.31;100263.13;6099156;28;20028;-65
2023/08/27 07:21:20;;;;;;;5.50;2.00;;;;;;;17.78;90.16;100253.44;6099314;28;20624;-65
2023/08/27 07:24:16;;;;;;;3.70;1.83;;;;;;;17.67;91.58;100254.88;6098669;28;20075;-65
2023/08/27 07:27:12;;;;;;;4.82;1.77;;;;;;;17.73;92.26;100250.56;6098753;28;20109;-65
2023/08/27 07:30:07;;;;;;;6.60;2.15;;;;;;;17.63;91.22;100250.97;6098924;28;20107;-64
2023/08/27 07:33:03;;;;;;;3.72;1.63;;;;;;;17.76;92.18;100260.88;6098643;28;20072;-65
2023/08/27 07:35:58;;;;;;;4.60;1.63;;;;;;;17.83;91.59;100250.97;6097057;28;20049;-66
2023/08/27 07:38:53;;;;;;;5.73;1.70;;;;;;;17.87;90.93;100246.88;6098172;28;20052;-66
2023/08/27 07:41:49;;;;;;;3.27;1.53;;;;;;;18.01;90.16;100263.81;6097925;28;20056;-66
2023/08/27 07:44:44;;;;;;;3.42;1.55;;;;;;;17.91;90.89;100247.28;6098146;28;20048;-66
2023/08/27 07:47:40;;;;;;;5.93;2.08;;;;;;;18.20;89.27;100258.47;6097698;28;20551;-66
2023/08/27 07:50:35;;;;;;;3.40;1.57;;;;;;;18.74;86.23;100257.38;6098866;28;20486;-67
2023/08/27 07:53:30;;;;;;;2.40;1.40;;;;;;;18.89;83.82;100250.72;6102385;28;20316;-68
2023/08/27 07:56:26;;;;;;;3.03;1.80;;;;;;;18.85;83.06;100271.00;6103035;28;20076;-67
2023/08/27 07:59:21;;;;;;;3.17;1.30;;;;;;;18.44;85.75;100259.69;6109606;28;20439;-67
2023/08/27 08:02:17;;;;;;;3.80;1.57;;;;;;;18.70;85.08;100270.41;6107704;28;20167;-67
2023/08/27 08:05:13;;;;;;;2.58;1.30;;;;;;;18.87;84.46;100254.66;6112074;28;20650;-67
2023/08/27 08:08:08;;;;;;;4.78;1.90;;;;;;;18.68;85.77;100279.72;6103581;28;20047;-67
2023/08/27 08:11:03;;;;;;;3.07;1.63;;;;;;;18.63;85.08;100268.78;6103490;28;20091;-67
2023/08/27 08:13:59;;;;;;;4.50;1.50;;;;;;;18.47;86.07;100275.38;6099632;28;20461;-67
2023/08/27 08:16:57;;;;;;;3.13;1.47;;;;;;;18.62;86.58;100273.31;6107657;28;20770;-67
2023/08/27 08:19:52;;;;;;;2.83;1.30;;;;;;;18.80;85.48;100254.69;6103010;28;20512;-67
2023/08/27 08:22:47;;;;;;;4.15;1.63;;;;;;;19.19;84.88;100261.78;6103983;28;20056;-65
2023/08/27 08:25:43;;;;;;;4.30;1.40;;;;;;;19.64;82.95;100273.41;6097787;28;20072;-67
2023/08/27 08:28:38;;;;;;;5.35;1.40;;;;;;;20.34;76.82;100258.84;6106393;28;20039;-66
2023/08/27 08:31:34;;;;;;;3.37;1.53;;;;;;;20.66;75.37;100246.94;6104984;28;20029;-66
2023/08/27 08:34:29;;;;;;;3.10;1.30;;;;;;;20.84;73.52;100275.81;6098787;28;20287;-66
2023/08/27 08:37:25;;;;;;;4.43;1.67;;;;;;;20.89;74.68;100254.38;6108888;28;20028;-66
2023/08/27 08:40:21;;;;;;;4.13;1.52;;;;;;;21.16;73.57;100255.75;6102390;28;20270;-66
2023/08/27 08:43:39;;;;;;;3.93;1.50;;;;;;;21.51;72.03;100250.53;6105149;28;20083;-66
2023/08/27 08:46:35;;;;;;;3.92;1.52;;;;;;;21.11;72.98;100262.88;6098495;28;20032;-66
2023/08/27 08:49:32;;;;;;;6.05;2.35;;;;;;;20.72;73.29;100256.00;6096670;28;20037;-66
2023/08/27 08:52:29;;;;;;;3.47;1.60;;;;;;;20.72;75.57;100277.56;6112213;28;20032;-66
2023/08/27 08:55:26;;;;;;;3.45;1.45;;;;;;;20.87;73.66;100278.06;6091920;28;20090;-66
2023/08/27 08:58:21;;;;;;;5.25;1.63;;;;;;;20.89;75.01;100262.47;6086077;28;20528;-66
2023/08/27 09:01:18;;;;;;;3.67;1.38;;;;;;;20.88;75.14;100263.50;6082618;28;20173;-66
2023/08/27 09:04:13;;;;;;;2.20;1.40;;;;;;;20.85;74.95;100277.44;6112240;28;20029;-66
2023/08/27 09:07:09;;;;;;;5.43;2.35;;;;;;;21.03;73.55;100268.53;6098589;28;20039;-67
2023/08/27 09:10:05;;;;;;;3.50;1.60;;;;;;;21.05;72.68;100259.19;6100493;28;20041;-66
2023/08/27 09:13:02;;;;;;;4.72;1.50;;;;;;;21.31;72.16;100258.88;6116820;28;20484;-68
2023/08/27 09:15:58;;;;;;;5.25;1.55;;;;;;;21.78;70.92;100253.66;6099387;28;20032;-67
2023/08/27 09:18:53;;;;;;;5.17;1.70;;;;;;;22.04;67.70;100271.41;6098243;28;20439;-66
2023/08/27 09:21:49;;;;;;;2.40;1.40;;;;;;;21.60;67.54;100269.94;6109392;28;20359;-67
2023/08/27 09:24:45;;;;;;;3.53;1.67;;;;;;;21.52;69.81;100262.16;6114464;28;20357;-67
2023/08/27 09:27:41;;;;;;;4.18;1.50;;;;;;;21.43;69.42;100236.53;6080583;28;20079;-67
2023/08/27 09:30:36;;;;;;;2.17;1.50;;;;;;;22.08;69.00;100251.78;6108160;28;20033;-67
2023/08/27 09:33:36;;;;;;;4.40;1.87;;;;;;;22.20;66.76;100246.41;6089833;28;20028;-66
2023/08/27 09:36:36;;;;;;;5.35;1.48;;;;;;;22.20;67.28;100239.13;6103794;28;20039;-67
2023/08/27 09:39:32;;;;;;;5.05;1.52;;;;;;;22.76;63.85;100238.56;6103600;28;20086;-67
2023/08/27 09:42:27;;;;;;;5.18;2.25;;;;;;;23.23;62.43;100230.34;6097655;28;20025;-67
2023/08/27 09:45:22;;;;;;;2.30;1.13;;;;;;;23.39;56.83;100233.16;6115706;28;20036;-67
2023/08/27 09:48:26;;;;;;;3.63;1.50;;;;;;;23.20;57.87;100215.41;6107010;28;20060;-67
2023/08/27 09:51:21;;;;;;;2.90;1.85;;;;;;;22.56;60.92;100215.66;6097878;28;20025;-66
2023/08/27 09:54:19;;;;;;;5.90;1.97;;;;;;;22.23;59.96;100213.53;6101651;28;20436;-67
2023/08/27 09:57:21;;;;;;;4.72;1.52;;;;;;;23.22;60.20;100207.88;6102427;28;20270;-67
2023/08/27 10:00:22;;;;;;;4.03;1.70;;;;;;;23.64;58.24;100220.06;6094652;28;20064;-67
2023/08/27 10:03:22;;;;;;;4.50;1.70;;;;;;;23.70;58.40;100229.94;6113650;28;20036;-67
2023/08/27 10:06:17;;;;;;;6.75;2.58;;;;;;;23.90;56.60;100221.34;6110509;28;20043;-67
2023/08/27 10:09:14;;;;;;;2.50;1.33;;;;;;;23.85;55.44;100204.19;6111829;28;20056;-68
2023/08/27 10:12:10;;;;;;;4.88;1.60;;;;;;;23.83;53.70;100219.88;6110264;28;20475;-67
2023/08/27 10:15:06;;;;;;;2.83;1.33;;;;;;;23.95;54.56;100231.44;6109369;28;20036;-68
2023/08/27 10:18:02;;;;;;;4.13;1.55;;;;;;;23.38;56.88;100220.66;6108299;28;20036;-67
2023/08/27 10:20:58;;;;;;;2.60;1.33;;;;;;;23.79;55.35;100202.44;6084587;28;20036;-67
2023/08/27 10:23:54;;;;;;;4.15;1.63;;;;;;;23.58;54.88;100204.81;6108096;28;20051;-67
2023/08/27 10:26:49;;;;;;;5.20;1.48;;;;;;;23.68;54.14;100196.88;6083813;28;20095;-67
2023/08/27 10:29:45;;;;;;;2.13;1.13;;;;;;;23.68;53.66;100198.75;6099316;28;20112;-67
2023/08/27 10:32:41;;;;;;;3.72;1.40;;;;;;;23.60;52.99;100189.16;6104308;28;20056;-67
2023/08/27 10:35:38;;;;;;;2.33;1.30;;;;;;;22.90;54.69;100174.22;6103678;28;20031;-67
2023/08/27 10:38:35;;;;;;;3.67;1.40;;;;;;;23.18;53.45;100185.09;6088520;28;20283;-67
2023/08/27 10:41:34;;;;;;;2.13;1.10;;;;;;;24.10;52.93;100180.25;6100874;28;20057;-67
2023/08/27 10:44:29;;;;;;;3.10;1.48;;;;;;;23.68;51.85;100145.41;6099335;28;20533;-67
2023/08/27 10:47:24;;;;;;;2.10;1.20;;;;;;;24.44;50.25;100153.91;6100165;28;20040;-67
2023/08/27 10:50:21;;;;;;;2.40;1.10;;;;;;;24.31;50.13;100146.97;6099993;28;20286;-67
2023/08/27 10:53:17;;;;;;;4.25;1.20;;;;;;;24.55;48.10;100155.69;6099049;28;20439;-68
2023/08/27 10:56:36;;;;;;;1.40;0.85;;;;;;;24.19;49.05;100151.66;6098912;28;20040;-67
2023/08/27 10:59:33;;;;;;;3.50;1.20;;;;;;;23.84;48.48;100151.91;6092674;28;20485;-68
2023/08/27 11:02:28;;;;;;;2.40;1.13;;;;;;;24.07;50.26;100159.03;6099890;28;20040;-67
2023/08/27 11:05:28;;;;;;;1.63;0.97;;;;;;;23.81;50.80;100132.63;6102136;28;20048;-67
2023/08/27 11:08:35;;;;;;;;;;;;;;;23.62;51.47;100151.81;6108647;28;20277;-68
2023/08/27 11:11:31;;;;;;;3.75;1.10;;;;;;;23.69;51.88;100157.06;6099285;28;20257;-68
2023/08/27 11:14:26;;;;;;;5.18;1.10;;;;;;;23.82;50.61;100166.75;6083875;28;20044;-67
2023/08/27 11:17:26;;;;;;;2.42;1.00;;;;;;;23.59;50.42;100156.91;6101462;28;20079;-68
2023/08/27 11:20:23;;;;;;;;;;;;;;;23.28;50.92;100139.25;6108606;28;20059;-67
2023/08/27 11:23:18;;;;;;;2.25;1.02;;;;;;;23.38;51.35;100147.59;6098564;28;19955;-67
2023/08/27 11:26:13;;;;;;;5.37;1.10;;;;;;;23.29;50.83;100151.72;6098557;28;20041;-67
2023/08/27 11:29:10;;;;;;;3.63;1.08;;;;;;;23.64;51.64;100144.25;6080870;28;20380;-67
2023/08/27 11:32:10;;;;;;;2.22;1.00;;;;;;;23.72;52.62;100147.63;6098960;28;20130;-68
2023/08/27 11:35:05;;;;;;;3.00;1.10;;;;;;;23.18;51.40;100154.50;6097305;28;20385;-67
2023/08/27 11:38:01;;;;;;;3.83;1.20;;;;;;;22.11;58.01;100164.06;6098693;28;20028;-68
2023/08/27 11:40:58;;;;;;;5.27;1.10;;;;;;;20.92;65.41;100159.56;6106431;28;20487;-67
2023/08/27 11:43:53;;;;;;;4.75;1.40;;;;;;;19.77;73.64;100164.88;6102685;28;20119;-67
2023/08/27 11:46:51;;;;;;;5.32;1.23;;;;;;;19.30;81.00;100179.63;6109956;28;20370;-67
2023/08/27 11:49:46;;;;;;;4.10;1.35;;;;;;;18.48;91.01;100185.75;6117027;28;20032;-67
2023/08/27 11:52:41;;;;;;;3.20;1.00;;;;;;;17.70;99.92;100203.50;6098634;28;20055;-65
2023/08/27 11:55:37;;;;;;;3.57;1.20;;;;;;;17.03;100.00;100226.81;6112932;28;20271;-65
2023/08/27 11:58:32;;;;;;;4.30;1.43;;;;;;;16.42;100.00;100217.78;6080535;28;20354;-64
2023/08/27 12:01:27;;;;;;;3.90;1.30;;;;;;;16.20;100.00;100233.03;6079628;28;20643;-63
2023/08/27 12:04:27;;;;;;;2.37;0.90;;;;;;;15.89;100.00;100229.91;6078582;28;20108;-63
2023/08/27 12:07:25;;;;;;;2.00;0.95;;;;;;;15.77;100.00;100223.41;6096892;28;20044;-64
2023/08/27 12:10:23;;;;;;;3.67;1.20;;;;;;;15.80;100.00;100228.38;6097920;28;20036;-64
2023/08/27 12:13:19;;;;;;;1.98;1.00;;;;;;;15.81;100.00;100216.69;6097153;28;20033;-64
2023/08/27 12:16:15;;;;;;;3.58;1.50;;;;;;;15.84;100.00;100222.47;6083266;28;20028;-65
2023/08/27 12:19:10;;;;;;;3.20;1.10;;;;;;;16.05;100.00;100243.03;6079876;28;20033;-65
2023/08/27 12:22:06;;;;;;;2.00;1.20;;;;;;;15.93;100.00;100225.81;6097539;28;20032;-65
2023/08/27 12:25:01;;;;;;;2.35;0.93;;;;;;;16.00;100.00;100211.50;6094796;28;20128;-65
2023/08/27 12:27:56;;;;;;;1.98;1.00;;;;;;;16.00;100.00;100219.53;6091473;28;20044;-65
2023/08/27 12:30:53;;;;;;;2.47;1.20;;;;;;;16.44;100.00;100215.75;6077136;28;20067;-66
2023/08/27 12:33:48;;;;;;;1.90;1.08;;;;;;;16.63;100.00;100215.88;6092068;28;20806;-67
2023/08/27 12:36:43;;;;;;;3.23;1.00;;;;;;;16.91;100.00;100201.59;6093447;28;20037;-67
2023/08/27 12:39:40;;;;;;;3.77;1.10;;;;;;;17.20;100.00;100210.16;6096236;28;20048;-66
2023/08/27 12:42:35;;;;;;;3.03;1.10;;;;;;;17.51;100.00;100198.06;6100051;28;20052;-67
2023/08/27 12:45:30;;;;;;;4.50;1.10;;;;;;;17.89;100.00;100190.31;6096693;28;20507;-66
2023/08/27 12:48:26;;;;;;;2.20;0.77;;;;;;;18.18;100.00;100203.34;6127241;28;20025;-66
2023/08/27 12:51:21;;;;;;;1.70;0.80;;;;;;;18.04;100.00;100209.72;6099085;28;20044;-67
2023/08/27 12:54:17;;;;;;;1.33;0.77;;;;;;;17.97;100.00;100198.97;6093170;28;20103;-66
2023/08/27 12:57:12;;;;;;;1.52;0.80;;;;;;;18.11;100.00;100181.03;6093880;28;20416;-67
2023/08/27 13:00:08;;;;;;;2.10;0.87;;;;;;;18.15;100.00;100168.84;6093869;28;20059;-67
2023/08/27 13:03:03;;;;;;;3.22;1.10;;;;;;;18.58;100.00;100167.34;6093374;28;20396;-67
2023/08/27 13:05:59;;;;;;;2.22;1.10;;;;;;;18.90;100.00;100155.66;6093488;28;20067;-67
2023/08/27 13:08:55;;;;;;;2.70;0.98;;;;;;;19.43;100.00;100158.88;6093817;28;20039;-67
2023/08/27 13:11:50;;;;;;;1.73;0.93;;;;;;;19.67;100.00;100133.09;6095389;28;20040;-67
2023/08/27 13:14:46;;;;;;;1.05;0.75;;;;;;;19.58;100.00;100143.28;6097787;28;20029;-66
2023/08/27 13:17:41;;;;;;;3.07;1.13;;;;;;;19.94;100.00;100145.28;6107903;28;20039;-66
2023/08/27 13:20:38;;;;;;;4.35;1.08;;;;;;;19.87;98.54;100151.72;6102450;28;20037;-68
2023/08/27 13:23:34;;;;;;;3.70;0.80;;;;;;;19.82;95.82;100132.72;6103772;28;20061;-66
2023/08/27 13:26:29;;;;;;;1.10;0.70;;;;;;;19.96;94.37;100151.25;6097169;28;20043;-67
2023/08/27 13:29:24;;;;;;;3.00;1.17;;;;;;;19.88;93.18;100154.22;6095914;28;20044;-67
2023/08/27 13:32:20;;;;;;;1.83;0.80;;;;;;;19.69;94.03;100138.22;6095482;28;20033;-67
2023/08/27 13:35:15;;;;;;;2.40;1.00;;;;;;;19.57;93.71;100148.88;6095860;28;20033;-68